sensor_id;sensor_type;location;lat;lon;timestamp;temperature;humidity
23116;DHT22;11727;52.134;5.052;2024-03-25T00:01:19;4.80;99.90
23116;DHT22;11727;52.134;5.052;2024-03-25T00:03:44;4.70;99.90
23116;DHT22;11727;52.134;5.052;2024-03-25T00:06:10;4.70;99.90
23116;DHT22;11727;52.134;5.052;2024-03-25T00:08:36;4.70;99.90
23116;DHT22;11727;52.134;5.052;2024-03-25T00:11:02;4.70;99.90
23116;DHT22;11727;52.134;5.052;2024-03-25T00:13:27;4.80;99.90
23116;DHT22;11727;52.134;5.052;2024-03-25T00:15:53;4.80;99.90
23116;DHT22;11727;52.134;5.052;2024-03-25T00:18:18;4.90;99.90
23116;DHT22;11727;52.134;5.052;2024-03-25T00:20:44;4.90;99.90
23116;DHT22;11727;52.134;5.052;2024-03-25T00:23:10;4.90;99.90
23116;DHT22;11727;52.134;5.052;2024-03-25T00:25:37;4.90;99.90
23116;DHT22;11727;52.134;5.052;2024-03-25T00:28:02;4.90;99.90
23116;DHT22;11727;52.134;5.052;2024-03-25T00:30:29;4.90;99.90
23116;DHT22;11727;52.134;5.052;2024-03-25T00:32:55;4.80;99.90
23116;DHT22;11727;52.134;5.052;2024-03-25T00:35:20;4.80;99.90
23116;DHT22;11727;52.134;5.052;2024-03-25T00:37:46;4.80;99.90
23116;DHT22;11727;52.134;5.052;2024-03-25T00:40:12;4.70;99.90
23116;DHT22;11727;52.134;5.052;2024-03-25T00:42:38;4.60;99.90
23116;DHT22;11727;52.134;5.052;2024-03-25T00:45:04;4.60;99.90
23116;DHT22;11727;52.134;5.052;2024-03-25T00:47:31;4.60;99.90
23116;DHT22;11727;52.134;5.052;2024-03-25T00:49:57;4.50;99.90
23116;DHT22;11727;52.134;5.052;2024-03-25T00:52:22;4.50;99.90
23116;DHT22;11727;52.134;5.052;2024-03-25T00:54:48;4.50;99.90
23116;DHT22;11727;52.134;5.052;2024-03-25T00:57:14;4.50;99.90
23116;DHT22;11727;52.134;5.052;2024-03-25T00:59:40;4.40;99.90
23116;DHT22;11727;52.134;5.052;2024-03-25T01:02:05;4.40;99.90
23116;DHT22;11727;52.134;5.052;2024-03-25T01:04:31;4.40;99.90
23116;DHT22;11727;52.134;5.052;2024-03-25T01:06:56;4.40;99.90
23116;DHT22;11727;52.134;5.052;2024-03-25T01:09:22;4.30;99.90
23116;DHT22;11727;52.134;5.052;2024-03-25T01:11:48;4.30;99.90
23116;DHT22;11727;52.134;5.052;2024-03-25T01:14:13;4.30;99.90
23116;DHT22;11727;52.134;5.052;2024-03-25T01:16:39;4.30;99.90
23116;DHT22;11727;52.134;5.052;2024-03-25T01:19:04;4.20;99.90
23116;DHT22;11727;52.134;5.052;2024-03-25T01:21:30;4.20;99.90
23116;DHT22;11727;52.134;5.052;2024-03-25T01:23:56;4.20;99.90
23116;DHT22;11727;52.134;5.052;2024-03-25T01:26:22;4.20;99.90
23116;DHT22;11727;52.134;5.052;2024-03-25T01:28:47;4.20;99.90
23116;DHT22;11727;52.134;5.052;2024-03-25T01:31:13;4.20;99.90
23116;DHT22;11727;52.134;5.052;2024-03-25T01:33:39;4.10;99.90
23116;DHT22;11727;52.134;5.052;2024-03-25T01:36:05;4.10;99.90
23116;DHT22;11727;52.134;5.052;2024-03-25T01:38:31;4.10;99.90
23116;DHT22;11727;52.134;5.052;2024-03-25T01:41:10;4.10;99.90
23116;DHT22;11727;52.134;5.052;2024-03-25T01:43:36;4.10;99.90
23116;DHT22;11727;52.134;5.052;2024-03-25T01:46:02;4.10;99.90
23116;DHT22;11727;52.134;5.052;2024-03-25T01:48:28;4.10;99.90
23116;DHT22;11727;52.134;5.052;2024-03-25T01:50:54;4.10;99.90
23116;DHT22;11727;52.134;5.052;2024-03-25T01:53:21;4.10;99.90
23116;DHT22;11727;52.134;5.052;2024-03-25T01:55:48;4.20;99.90
23116;DHT22;11727;52.134;5.052;2024-03-25T01:58:14;4.20;99.90
23116;DHT22;11727;52.134;5.052;2024-03-25T02:00:41;4.30;99.90
23116;DHT22;11727;52.134;5.052;2024-03-25T02:03:08;4.30;99.90
23116;DHT22;11727;52.134;5.052;2024-03-25T02:05:34;4.40;99.90
23116;DHT22;11727;52.134;5.052;2024-03-25T02:08:01;4.40;99.90
23116;DHT22;11727;52.134;5.052;2024-03-25T02:10:27;4.40;99.90
23116;DHT22;11727;52.134;5.052;2024-03-25T02:12:55;4.50;99.90
23116;DHT22;11727;52.134;5.052;2024-03-25T02:15:21;4.60;99.90
23116;DHT22;11727;52.134;5.052;2024-03-25T02:17:46;4.60;99.90
23116;DHT22;11727;52.134;5.052;2024-03-25T02:20:12;4.60;99.90
23116;DHT22;11727;52.134;5.052;2024-03-25T02:22:41;4.60;99.90
23116;DHT22;11727;52.134;5.052;2024-03-25T02:25:10;4.70;99.90
23116;DHT22;11727;52.134;5.052;2024-03-25T02:27:37;4.70;99.90
23116;DHT22;11727;52.134;5.052;2024-03-25T02:30:08;4.70;99.90
23116;DHT22;11727;52.134;5.052;2024-03-25T02:32:35;4.70;99.90
23116;DHT22;11727;52.134;5.052;2024-03-25T02:35:05;4.70;99.90
23116;DHT22;11727;52.134;5.052;2024-03-25T02:37:32;4.70;99.90
23116;DHT22;11727;52.134;5.052;2024-03-25T02:39:59;4.60;99.90
23116;DHT22;11727;52.134;5.052;2024-03-25T02:42:26;4.60;99.90
23116;DHT22;11727;52.134;5.052;2024-03-25T02:44:53;4.60;99.90
23116;DHT22;11727;52.134;5.052;2024-03-25T02:47:19;4.50;99.90
23116;DHT22;11727;52.134;5.052;2024-03-25T02:49:45;4.50;99.90
23116;DHT22;11727;52.134;5.052;2024-03-25T02:52:11;4.50;99.90
23116;DHT22;11727;52.134;5.052;2024-03-25T02:54:37;4.60;99.90
23116;DHT22;11727;52.134;5.052;2024-03-25T02:57:02;4.60;99.90
23116;DHT22;11727;52.134;5.052;2024-03-25T02:59:28;4.70;99.90
23116;DHT22;11727;52.134;5.052;2024-03-25T03:01:54;4.60;99.90
23116;DHT22;11727;52.134;5.052;2024-03-25T03:04:19;4.60;99.90
23116;DHT22;11727;52.134;5.052;2024-03-25T03:06:45;4.60;99.90
23116;DHT22;11727;52.134;5.052;2024-03-25T03:09:10;4.60;99.90
23116;DHT22;11727;52.134;5.052;2024-03-25T03:11:36;4.60;99.90
23116;DHT22;11727;52.134;5.052;2024-03-25T03:14:02;4.60;99.90
23116;DHT22;11727;52.134;5.052;2024-03-25T03:16:28;4.60;99.90
23116;DHT22;11727;52.134;5.052;2024-03-25T03:18:54;4.60;99.90
23116;DHT22;11727;52.134;5.052;2024-03-25T03:21:20;4.60;99.90
23116;DHT22;11727;52.134;5.052;2024-03-25T03:23:45;4.60;99.90
23116;DHT22;11727;52.134;5.052;2024-03-25T03:26:11;4.50;99.90
23116;DHT22;11727;52.134;5.052;2024-03-25T03:28:38;4.50;99.90
23116;DHT22;11727;52.134;5.052;2024-03-25T03:31:03;4.50;99.90
23116;DHT22;11727;52.134;5.052;2024-03-25T03:33:29;4.50;99.90
23116;DHT22;11727;52.134;5.052;2024-03-25T03:35:55;4.40;99.90
23116;DHT22;11727;52.134;5.052;2024-03-25T03:38:22;4.40;99.90
23116;DHT22;11727;52.134;5.052;2024-03-25T03:40:58;4.40;99.90
23116;DHT22;11727;52.134;5.052;2024-03-25T03:43:23;4.50;99.90
23116;DHT22;11727;52.134;5.052;2024-03-25T03:45:49;4.50;99.90
23116;DHT22;11727;52.134;5.052;2024-03-25T03:48:15;4.40;99.90
23116;DHT22;11727;52.134;5.052;2024-03-25T03:50:41;4.50;99.90
23116;DHT22;11727;52.134;5.052;2024-03-25T03:53:07;4.40;99.90
23116;DHT22;11727;52.134;5.052;2024-03-25T03:55:32;4.40;99.90
23116;DHT22;11727;52.134;5.052;2024-03-25T03:57:58;4.40;99.90
23116;DHT22;11727;52.134;5.052;2024-03-25T04:00:23;4.40;99.90
23116;DHT22;11727;52.134;5.052;2024-03-25T04:02:49;4.40;99.90
23116;DHT22;11727;52.134;5.052;2024-03-25T04:05:15;4.30;99.90
23116;DHT22;11727;52.134;5.052;2024-03-25T04:07:40;4.30;99.90
23116;DHT22;11727;52.134;5.052;2024-03-25T04:10:06;4.20;99.90
23116;DHT22;11727;52.134;5.052;2024-03-25T04:12:32;4.20;99.90
23116;DHT22;11727;52.134;5.052;2024-03-25T04:14:57;4.10;99.90
23116;DHT22;11727;52.134;5.052;2024-03-25T04:17:23;4.10;99.90
23116;DHT22;11727;52.134;5.052;2024-03-25T04:19:49;4.10;99.90
23116;DHT22;11727;52.134;5.052;2024-03-25T04:22:15;4.10;99.90
23116;DHT22;11727;52.134;5.052;2024-03-25T04:24:42;4.00;99.90
23116;DHT22;11727;52.134;5.052;2024-03-25T04:27:07;3.90;99.90
23116;DHT22;11727;52.134;5.052;2024-03-25T04:29:33;3.90;99.90
23116;DHT22;11727;52.134;5.052;2024-03-25T04:31:59;3.90;99.90
23116;DHT22;11727;52.134;5.052;2024-03-25T04:34:24;3.80;99.90
23116;DHT22;11727;52.134;5.052;2024-03-25T04:36:50;3.80;99.90
23116;DHT22;11727;52.134;5.052;2024-03-25T04:39:15;3.80;99.90
23116;DHT22;11727;52.134;5.052;2024-03-25T04:41:41;3.80;99.90
23116;DHT22;11727;52.134;5.052;2024-03-25T04:44:07;3.70;99.90
23116;DHT22;11727;52.134;5.052;2024-03-25T04:46:32;3.70;99.90
23116;DHT22;11727;52.134;5.052;2024-03-25T04:48:58;3.80;99.90
23116;DHT22;11727;52.134;5.052;2024-03-25T04:51:24;3.70;99.90
23116;DHT22;11727;52.134;5.052;2024-03-25T04:53:49;3.70;99.90
23116;DHT22;11727;52.134;5.052;2024-03-25T04:56:15;3.70;99.90
23116;DHT22;11727;52.134;5.052;2024-03-25T04:58:40;3.60;99.90
23116;DHT22;11727;52.134;5.052;2024-03-25T05:01:06;3.60;99.90
23116;DHT22;11727;52.134;5.052;2024-03-25T05:03:31;3.60;99.90
23116;DHT22;11727;52.134;5.052;2024-03-25T05:05:57;3.60;99.90
23116;DHT22;11727;52.134;5.052;2024-03-25T05:08:23;3.60;99.90
23116;DHT22;11727;52.134;5.052;2024-03-25T05:10:50;3.50;99.90
23116;DHT22;11727;52.134;5.052;2024-03-25T05:13:15;3.50;99.90
23116;DHT22;11727;52.134;5.052;2024-03-25T05:15:46;3.50;99.90
23116;DHT22;11727;52.134;5.052;2024-03-25T05:18:14;3.40;99.90
23116;DHT22;11727;52.134;5.052;2024-03-25T05:20:40;3.40;99.90
23116;DHT22;11727;52.134;5.052;2024-03-25T05:23:06;3.40;99.90
23116;DHT22;11727;52.134;5.052;2024-03-25T05:25:31;3.30;99.90
23116;DHT22;11727;52.134;5.052;2024-03-25T05:27:57;3.30;99.90
23116;DHT22;11727;52.134;5.052;2024-03-25T05:30:23;3.30;99.90
23116;DHT22;11727;52.134;5.052;2024-03-25T05:32:48;3.30;99.90
23116;DHT22;11727;52.134;5.052;2024-03-25T05:35:14;3.30;99.90
23116;DHT22;11727;52.134;5.052;2024-03-25T05:37:40;3.30;99.90
23116;DHT22;11727;52.134;5.052;2024-03-25T05:40:06;3.40;99.90
23116;DHT22;11727;52.134;5.052;2024-03-25T05:42:31;3.40;99.90
23116;DHT22;11727;52.134;5.052;2024-03-25T05:44:57;3.40;99.90
23116;DHT22;11727;52.134;5.052;2024-03-25T05:47:23;3.40;99.90
23116;DHT22;11727;52.134;5.052;2024-03-25T05:49:49;3.30;99.90
23116;DHT22;11727;52.134;5.052;2024-03-25T05:52:14;3.40;99.90
23116;DHT22;11727;52.134;5.052;2024-03-25T05:54:40;3.40;99.90
23116;DHT22;11727;52.134;5.052;2024-03-25T05:57:05;3.40;99.90
23116;DHT22;11727;52.134;5.052;2024-03-25T05:59:31;3.40;99.90
23116;DHT22;11727;52.134;5.052;2024-03-25T06:01:56;3.30;99.90
23116;DHT22;11727;52.134;5.052;2024-03-25T06:04:22;3.30;99.90
23116;DHT22;11727;52.134;5.052;2024-03-25T06:06:48;3.30;99.90
23116;DHT22;11727;52.134;5.052;2024-03-25T06:09:13;3.30;99.90
23116;DHT22;11727;52.134;5.052;2024-03-25T06:11:39;3.30;99.90
23116;DHT22;11727;52.134;5.052;2024-03-25T06:14:05;3.40;99.90
23116;DHT22;11727;52.134;5.052;2024-03-25T06:16:31;3.40;99.90
23116;DHT22;11727;52.134;5.052;2024-03-25T06:18:56;3.40;99.90
23116;DHT22;11727;52.134;5.052;2024-03-25T06:21:22;3.40;99.90
23116;DHT22;11727;52.134;5.052;2024-03-25T06:23:48;3.40;99.90
23116;DHT22;11727;52.134;5.052;2024-03-25T06:26:14;3.50;99.90
23116;DHT22;11727;52.134;5.052;2024-03-25T06:28:40;3.50;99.90
23116;DHT22;11727;52.134;5.052;2024-03-25T06:31:05;3.50;99.90
23116;DHT22;11727;52.134;5.052;2024-03-25T06:33:50;3.60;99.90
23116;DHT22;11727;52.134;5.052;2024-03-25T06:36:34;3.70;99.90
23116;DHT22;11727;52.134;5.052;2024-03-25T06:39:00;3.80;99.90
23116;DHT22;11727;52.134;5.052;2024-03-25T06:41:26;4.00;99.90
23116;DHT22;11727;52.134;5.052;2024-03-25T06:43:52;4.20;99.90
23116;DHT22;11727;52.134;5.052;2024-03-25T06:46:17;4.40;99.90
23116;DHT22;11727;52.134;5.052;2024-03-25T06:48:43;4.70;99.90
23116;DHT22;11727;52.134;5.052;2024-03-25T06:51:08;4.90;99.90
23116;DHT22;11727;52.134;5.052;2024-03-25T06:53:34;5.20;99.90
23116;DHT22;11727;52.134;5.052;2024-03-25T06:56:00;5.50;99.90
23116;DHT22;11727;52.134;5.052;2024-03-25T06:58:27;5.70;99.90
23116;DHT22;11727;52.134;5.052;2024-03-25T07:00:54;6.10;99.90
23116;DHT22;11727;52.134;5.052;2024-03-25T07:03:20;6.30;99.90
23116;DHT22;11727;52.134;5.052;2024-03-25T07:05:50;6.70;99.90
23116;DHT22;11727;52.134;5.052;2024-03-25T07:08:20;7.00;99.90
23116;DHT22;11727;52.134;5.052;2024-03-25T07:10:46;7.20;99.90
23116;DHT22;11727;52.134;5.052;2024-03-25T07:13:12;7.30;99.90
23116;DHT22;11727;52.134;5.052;2024-03-25T07:15:38;7.30;99.90
23116;DHT22;11727;52.134;5.052;2024-03-25T07:18:04;7.20;99.90
23116;DHT22;11727;52.134;5.052;2024-03-25T07:20:33;7.30;99.90
23116;DHT22;11727;52.134;5.052;2024-03-25T07:22:58;7.30;99.90
23116;DHT22;11727;52.134;5.052;2024-03-25T07:25:25;7.30;99.90
23116;DHT22;11727;52.134;5.052;2024-03-25T07:27:51;7.20;99.90
23116;DHT22;11727;52.134;5.052;2024-03-25T07:30:17;7.20;99.90
23116;DHT22;11727;52.134;5.052;2024-03-25T07:32:42;7.30;99.90
23116;DHT22;11727;52.134;5.052;2024-03-25T07:35:13;7.40;99.90
23116;DHT22;11727;52.134;5.052;2024-03-25T07:37:38;7.60;99.90
23116;DHT22;11727;52.134;5.052;2024-03-25T07:40:05;7.80;99.90
23116;DHT22;11727;52.134;5.052;2024-03-25T07:42:30;7.90;99.90
23116;DHT22;11727;52.134;5.052;2024-03-25T07:44:56;8.00;99.90
23116;DHT22;11727;52.134;5.052;2024-03-25T07:47:22;8.20;99.90
23116;DHT22;11727;52.134;5.052;2024-03-25T07:49:47;8.30;99.90
23116;DHT22;11727;52.134;5.052;2024-03-25T07:52:13;8.40;99.90
23116;DHT22;11727;52.134;5.052;2024-03-25T07:54:39;8.40;99.90
23116;DHT22;11727;52.134;5.052;2024-03-25T07:57:05;8.40;99.90
23116;DHT22;11727;52.134;5.052;2024-03-25T07:59:33;8.40;99.90
23116;DHT22;11727;52.134;5.052;2024-03-25T08:01:59;8.40;99.90
23116;DHT22;11727;52.134;5.052;2024-03-25T08:04:24;8.50;99.90
23116;DHT22;11727;52.134;5.052;2024-03-25T08:06:50;8.60;99.90
23116;DHT22;11727;52.134;5.052;2024-03-25T08:09:15;8.60;99.90
23116;DHT22;11727;52.134;5.052;2024-03-25T08:11:42;8.60;99.90
23116;DHT22;11727;52.134;5.052;2024-03-25T08:14:14;8.70;99.90
23116;DHT22;11727;52.134;5.052;2024-03-25T08:16:39;9.10;99.90
23116;DHT22;11727;52.134;5.052;2024-03-25T08:19:07;9.30;99.90
23116;DHT22;11727;52.134;5.052;2024-03-25T08:21:35;9.50;99.90
23116;DHT22;11727;52.134;5.052;2024-03-25T08:24:01;9.70;99.90
23116;DHT22;11727;52.134;5.052;2024-03-25T08:26:26;9.80;99.90
23116;DHT22;11727;52.134;5.052;2024-03-25T08:28:52;10.20;99.90
23116;DHT22;11727;52.134;5.052;2024-03-25T08:31:17;10.60;99.90
23116;DHT22;11727;52.134;5.052;2024-03-25T08:33:43;11.00;99.90
23116;DHT22;11727;52.134;5.052;2024-03-25T08:36:09;11.20;99.90
23116;DHT22;11727;52.134;5.052;2024-03-25T08:38:34;11.30;99.90
23116;DHT22;11727;52.134;5.052;2024-03-25T08:41:00;11.30;99.90
23116;DHT22;11727;52.134;5.052;2024-03-25T08:43:29;11.10;99.90
23116;DHT22;11727;52.134;5.052;2024-03-25T08:45:54;11.00;99.90
23116;DHT22;11727;52.134;5.052;2024-03-25T08:48:20;11.00;99.90
23116;DHT22;11727;52.134;5.052;2024-03-25T08:50:45;11.00;99.90
23116;DHT22;11727;52.134;5.052;2024-03-25T08:53:11;11.10;99.90
23116;DHT22;11727;52.134;5.052;2024-03-25T08:55:36;11.20;99.90
23116;DHT22;11727;52.134;5.052;2024-03-25T08:58:02;11.10;99.90
23116;DHT22;11727;52.134;5.052;2024-03-25T09:00:28;11.00;99.90
23116;DHT22;11727;52.134;5.052;2024-03-25T09:02:54;10.80;99.90
23116;DHT22;11727;52.134;5.052;2024-03-25T09:05:20;10.80;99.90
23116;DHT22;11727;52.134;5.052;2024-03-25T09:07:46;10.90;99.90
23116;DHT22;11727;52.134;5.052;2024-03-25T09:10:16;11.20;99.90
23116;DHT22;11727;52.134;5.052;2024-03-25T09:13:00;11.20;99.90
23116;DHT22;11727;52.134;5.052;2024-03-25T09:15:26;11.40;99.90
23116;DHT22;11727;52.134;5.052;2024-03-25T09:17:52;11.40;99.90
23116;DHT22;11727;52.134;5.052;2024-03-25T09:20:20;11.40;99.90
23116;DHT22;11727;52.134;5.052;2024-03-25T09:22:48;11.60;99.90
23116;DHT22;11727;52.134;5.052;2024-03-25T09:25:15;11.80;99.90
23116;DHT22;11727;52.134;5.052;2024-03-25T09:27:40;12.00;99.90
23116;DHT22;11727;52.134;5.052;2024-03-25T09:30:07;12.10;99.90
23116;DHT22;11727;52.134;5.052;2024-03-25T09:32:34;12.20;99.90
23116;DHT22;11727;52.134;5.052;2024-03-25T09:35:00;12.20;99.90
23116;DHT22;11727;52.134;5.052;2024-03-25T09:37:26;12.10;99.90
23116;DHT22;11727;52.134;5.052;2024-03-25T09:39:52;12.00;99.90
23116;DHT22;11727;52.134;5.052;2024-03-25T09:42:26;12.00;99.90
23116;DHT22;11727;52.134;5.052;2024-03-25T09:44:56;12.00;99.90
23116;DHT22;11727;52.134;5.052;2024-03-25T09:47:22;12.20;99.90
23116;DHT22;11727;52.134;5.052;2024-03-25T09:49:48;12.40;99.90
23116;DHT22;11727;52.134;5.052;2024-03-25T09:52:17;12.60;99.90
23116;DHT22;11727;52.134;5.052;2024-03-25T09:54:44;12.70;99.90
23116;DHT22;11727;52.134;5.052;2024-03-25T09:57:09;12.70;99.90
23116;DHT22;11727;52.134;5.052;2024-03-25T09:59:35;12.80;99.90
23116;DHT22;11727;52.134;5.052;2024-03-25T10:02:01;12.80;99.90
23116;DHT22;11727;52.134;5.052;2024-03-25T10:04:28;12.80;99.90
23116;DHT22;11727;52.134;5.052;2024-03-25T10:06:53;12.80;99.90
23116;DHT22;11727;52.134;5.052;2024-03-25T10:09:22;12.90;99.90
23116;DHT22;11727;52.134;5.052;2024-03-25T10:11:49;12.90;99.90
23116;DHT22;11727;52.134;5.052;2024-03-25T10:14:18;12.90;99.90
23116;DHT22;11727;52.134;5.052;2024-03-25T10:16:48;13.00;99.90
23116;DHT22;11727;52.134;5.052;2024-03-25T10:19:14;13.10;99.90
23116;DHT22;11727;52.134;5.052;2024-03-25T10:21:40;13.10;99.90
23116;DHT22;11727;52.134;5.052;2024-03-25T10:24:06;13.10;99.90
23116;DHT22;11727;52.134;5.052;2024-03-25T10:26:33;13.20;99.90
23116;DHT22;11727;52.134;5.052;2024-03-25T10:29:06;13.30;99.90
23116;DHT22;11727;52.134;5.052;2024-03-25T10:31:33;13.40;99.90
23116;DHT22;11727;52.134;5.052;2024-03-25T10:34:00;13.50;99.90
23116;DHT22;11727;52.134;5.052;2024-03-25T10:36:26;13.40;99.90
23116;DHT22;11727;52.134;5.052;2024-03-25T10:38:56;13.40;99.90
23116;DHT22;11727;52.134;5.052;2024-03-25T10:41:22;13.40;99.90
23116;DHT22;11727;52.134;5.052;2024-03-25T10:43:52;13.40;99.90
23116;DHT22;11727;52.134;5.052;2024-03-25T10:46:19;13.50;99.90
23116;DHT22;11727;52.134;5.052;2024-03-25T10:48:56;13.50;99.90
23116;DHT22;11727;52.134;5.052;2024-03-25T10:51:25;13.50;99.90
23116;DHT22;11727;52.134;5.052;2024-03-25T10:53:52;13.50;99.90
23116;DHT22;11727;52.134;5.052;2024-03-25T10:56:21;13.50;99.90
23116;DHT22;11727;52.134;5.052;2024-03-25T10:58:48;13.50;99.90
23116;DHT22;11727;52.134;5.052;2024-03-25T11:01:18;13.50;99.90
23116;DHT22;11727;52.134;5.052;2024-03-25T11:03:45;13.40;99.90
23116;DHT22;11727;52.134;5.052;2024-03-25T11:06:11;13.20;99.90
23116;DHT22;11727;52.134;5.052;2024-03-25T11:08:37;13.00;99.90
23116;DHT22;11727;52.134;5.052;2024-03-25T11:11:05;12.90;99.90
23116;DHT22;11727;52.134;5.052;2024-03-25T11:13:31;12.80;99.90
23116;DHT22;11727;52.134;5.052;2024-03-25T11:15:58;12.60;99.90
23116;DHT22;11727;52.134;5.052;2024-03-25T11:18:25;12.70;99.90
23116;DHT22;11727;52.134;5.052;2024-03-25T11:21:07;12.90;99.90
23116;DHT22;11727;52.134;5.052;2024-03-25T11:23:40;13.10;99.90
23116;DHT22;11727;52.134;5.052;2024-03-25T11:26:25;13.50;99.90
23116;DHT22;11727;52.134;5.052;2024-03-25T11:28:56;13.60;99.90
23116;DHT22;11727;52.134;5.052;2024-03-25T11:31:21;13.90;99.90
23116;DHT22;11727;52.134;5.052;2024-03-25T11:33:49;14.00;99.90
23116;DHT22;11727;52.134;5.052;2024-03-25T11:36:15;14.20;99.90
23116;DHT22;11727;52.134;5.052;2024-03-25T11:38:43;14.30;99.90
23116;DHT22;11727;52.134;5.052;2024-03-25T11:41:11;14.30;99.90
23116;DHT22;11727;52.134;5.052;2024-03-25T11:43:37;14.30;99.90
23116;DHT22;11727;52.134;5.052;2024-03-25T11:46:02;14.30;99.90
23116;DHT22;11727;52.134;5.052;2024-03-25T11:48:32;14.20;99.90
23116;DHT22;11727;52.134;5.052;2024-03-25T11:50:58;14.20;99.90
23116;DHT22;11727;52.134;5.052;2024-03-25T11:53:26;14.20;99.90
23116;DHT22;11727;52.134;5.052;2024-03-25T11:55:52;14.00;99.90
23116;DHT22;11727;52.134;5.052;2024-03-25T11:58:18;13.80;99.90
23116;DHT22;11727;52.134;5.052;2024-03-25T12:00:47;13.60;99.90
23116;DHT22;11727;52.134;5.052;2024-03-25T12:03:17;13.40;99.90
23116;DHT22;11727;52.134;5.052;2024-03-25T12:05:46;13.10;99.90
23116;DHT22;11727;52.134;5.052;2024-03-25T12:08:11;12.80;99.90
23116;DHT22;11727;52.134;5.052;2024-03-25T12:10:38;12.70;99.90
23116;DHT22;11727;52.134;5.052;2024-03-25T12:13:23;12.70;99.90
23116;DHT22;11727;52.134;5.052;2024-03-25T12:15:50;13.00;99.90
23116;DHT22;11727;52.134;5.052;2024-03-25T12:18:17;13.10;99.90
23116;DHT22;11727;52.134;5.052;2024-03-25T12:20:45;13.10;99.90
23116;DHT22;11727;52.134;5.052;2024-03-25T12:23:14;13.10;99.90
23116;DHT22;11727;52.134;5.052;2024-03-25T12:25:40;13.00;99.90
23116;DHT22;11727;52.134;5.052;2024-03-25T12:28:10;12.70;99.90
23116;DHT22;11727;52.134;5.052;2024-03-25T12:30:52;12.80;99.90
23116;DHT22;11727;52.134;5.052;2024-03-25T12:33:18;12.90;99.90
23116;DHT22;11727;52.134;5.052;2024-03-25T12:35:49;13.20;99.90
23116;DHT22;11727;52.134;5.052;2024-03-25T12:38:24;13.50;99.90
23116;DHT22;11727;52.134;5.052;2024-03-25T12:40:50;13.70;99.90
23116;DHT22;11727;52.134;5.052;2024-03-25T12:43:16;13.80;99.90
23116;DHT22;11727;52.134;5.052;2024-03-25T12:45:42;14.10;99.90
23116;DHT22;11727;52.134;5.052;2024-03-25T12:48:08;14.20;99.90
23116;DHT22;11727;52.134;5.052;2024-03-25T12:50:34;14.10;99.90
23116;DHT22;11727;52.134;5.052;2024-03-25T12:53:00;13.90;99.90
23116;DHT22;11727;52.134;5.052;2024-03-25T12:55:29;13.80;99.90
23116;DHT22;11727;52.134;5.052;2024-03-25T12:57:55;13.90;99.90
23116;DHT22;11727;52.134;5.052;2024-03-25T13:00:21;14.10;99.90
23116;DHT22;11727;52.134;5.052;2024-03-25T13:02:47;14.30;99.90
23116;DHT22;11727;52.134;5.052;2024-03-25T13:05:12;14.40;99.90
23116;DHT22;11727;52.134;5.052;2024-03-25T13:07:38;14.50;99.90
23116;DHT22;11727;52.134;5.052;2024-03-25T13:10:04;14.60;99.90
23116;DHT22;11727;52.134;5.052;2024-03-25T13:12:30;14.70;99.90
23116;DHT22;11727;52.134;5.052;2024-03-25T13:14:56;14.90;99.90
23116;DHT22;11727;52.134;5.052;2024-03-25T13:17:22;15.00;99.90
23116;DHT22;11727;52.134;5.052;2024-03-25T13:19:48;15.00;99.90
23116;DHT22;11727;52.134;5.052;2024-03-25T13:22:13;14.80;99.90
23116;DHT22;11727;52.134;5.052;2024-03-25T13:24:39;14.60;99.90
23116;DHT22;11727;52.134;5.052;2024-03-25T13:27:05;14.40;99.90
23116;DHT22;11727;52.134;5.052;2024-03-25T13:29:30;14.20;99.90
23116;DHT22;11727;52.134;5.052;2024-03-25T13:31:56;14.20;99.90
23116;DHT22;11727;52.134;5.052;2024-03-25T13:34:22;14.20;99.90
23116;DHT22;11727;52.134;5.052;2024-03-25T13:36:47;14.00;99.90
23116;DHT22;11727;52.134;5.052;2024-03-25T13:39:13;13.90;99.90
23116;DHT22;11727;52.134;5.052;2024-03-25T13:41:38;13.80;99.90
23116;DHT22;11727;52.134;5.052;2024-03-25T13:44:04;13.90;99.90
23116;DHT22;11727;52.134;5.052;2024-03-25T13:46:30;13.90;99.90
23116;DHT22;11727;52.134;5.052;2024-03-25T13:48:55;13.80;99.90
23116;DHT22;11727;52.134;5.052;2024-03-25T13:51:21;13.70;99.90
23116;DHT22;11727;52.134;5.052;2024-03-25T13:53:47;13.50;99.90
23116;DHT22;11727;52.134;5.052;2024-03-25T13:56:13;13.60;99.90
23116;DHT22;11727;52.134;5.052;2024-03-25T13:58:39;13.80;99.90
23116;DHT22;11727;52.134;5.052;2024-03-25T14:01:04;13.80;99.90
23116;DHT22;11727;52.134;5.052;2024-03-25T14:03:37;13.70;99.90
23116;DHT22;11727;52.134;5.052;2024-03-25T14:06:03;13.60;99.90
23116;DHT22;11727;52.134;5.052;2024-03-25T14:08:29;13.60;99.90
23116;DHT22;11727;52.134;5.052;2024-03-25T14:11:02;13.70;99.90
23116;DHT22;11727;52.134;5.052;2024-03-25T14:13:28;13.60;99.90
23116;DHT22;11727;52.134;5.052;2024-03-25T14:15:54;13.50;99.90
23116;DHT22;11727;52.134;5.052;2024-03-25T14:18:20;13.40;99.90
23116;DHT22;11727;52.134;5.052;2024-03-25T14:20:45;13.30;99.90
23116;DHT22;11727;52.134;5.052;2024-03-25T14:23:16;13.10;99.90
23116;DHT22;11727;52.134;5.052;2024-03-25T14:25:43;13.00;99.90
23116;DHT22;11727;52.134;5.052;2024-03-25T14:28:08;12.90;99.90
23116;DHT22;11727;52.134;5.052;2024-03-25T14:30:34;13.10;99.90
23116;DHT22;11727;52.134;5.052;2024-03-25T14:33:00;13.40;99.90
23116;DHT22;11727;52.134;5.052;2024-03-25T14:35:26;13.80;99.90
23116;DHT22;11727;52.134;5.052;2024-03-25T14:37:51;14.10;99.90
23116;DHT22;11727;52.134;5.052;2024-03-25T14:40:17;14.30;99.90
23116;DHT22;11727;52.134;5.052;2024-03-25T14:42:43;14.20;99.90
23116;DHT22;11727;52.134;5.052;2024-03-25T14:45:09;14.30;99.90
23116;DHT22;11727;52.134;5.052;2024-03-25T14:47:34;14.50;99.90
23116;DHT22;11727;52.134;5.052;2024-03-25T14:50:00;14.70;99.90
23116;DHT22;11727;52.134;5.052;2024-03-25T14:52:26;14.70;99.90
23116;DHT22;11727;52.134;5.052;2024-03-25T14:54:51;14.60;99.90
23116;DHT22;11727;52.134;5.052;2024-03-25T14:57:17;14.50;99.90
23116;DHT22;11727;52.134;5.052;2024-03-25T14:59:43;14.50;99.90
23116;DHT22;11727;52.134;5.052;2024-03-25T15:02:08;14.60;99.90
23116;DHT22;11727;52.134;5.052;2024-03-25T15:04:39;14.70;99.90
23116;DHT22;11727;52.134;5.052;2024-03-25T15:07:10;14.90;99.90
23116;DHT22;11727;52.134;5.052;2024-03-25T15:09:36;14.90;99.90
23116;DHT22;11727;52.134;5.052;2024-03-25T15:12:02;14.60;99.90
23116;DHT22;11727;52.134;5.052;2024-03-25T15:14:32;14.30;99.90
23116;DHT22;11727;52.134;5.052;2024-03-25T15:16:58;14.20;99.90
23116;DHT22;11727;52.134;5.052;2024-03-25T15:19:25;14.00;99.90
23116;DHT22;11727;52.134;5.052;2024-03-25T15:21:51;14.00;99.90
23116;DHT22;11727;52.134;5.052;2024-03-25T15:24:16;13.80;99.90
23116;DHT22;11727;52.134;5.052;2024-03-25T15:26:42;13.80;99.90
23116;DHT22;11727;52.134;5.052;2024-03-25T15:29:29;13.90;99.90
23116;DHT22;11727;52.134;5.052;2024-03-25T15:31:55;13.90;99.90
23116;DHT22;11727;52.134;5.052;2024-03-25T15:34:20;13.80;99.90
23116;DHT22;11727;52.134;5.052;2024-03-25T15:36:47;13.70;99.90